createdAt,value
2023-01-29T00:01:04.589Z,8.42
2023-01-29T00:06:09.764Z,8.39
2023-01-29T00:11:14.604Z,8.47
2023-01-29T00:16:17.985Z,8.53
2023-01-29T00:21:23.002Z,8.73
2023-01-29T00:26:28.428Z,9.05
2023-01-29T00:31:34.957Z,9.18
2023-01-29T00:36:38.291Z,9.30
2023-01-29T00:42:00.336Z,8.86
2023-01-29T00:47:04.607Z,8.82
2023-01-29T00:52:26.282Z,8.70
2023-01-29T00:57:32.478Z,8.73
2023-01-29T01:02:53.596Z,8.69
2023-01-29T01:07:58.342Z,8.91
2023-01-29T01:13:04.684Z,8.74
2023-01-29T01:18:08.517Z,9.02
2023-01-29T01:23:12.168Z,8.71
2023-01-29T01:28:17.041Z,9.07
2023-01-29T01:33:20.481Z,8.93
2023-01-29T01:38:23.857Z,8.97
2023-01-29T01:43:50.972Z,8.92
2023-01-29T01:48:57.315Z,8.95
2023-01-29T01:54:03.851Z,8.98
2023-01-29T01:59:10.963Z,8.97
2023-01-29T02:04:37.248Z,8.84
2023-01-29T02:09:43.456Z,8.64
2023-01-29T02:14:48.383Z,7.89
2023-01-29T02:19:58.321Z,8.37
2023-01-29T02:25:09.649Z,8.63
2023-01-29T02:30:19.150Z,8.51
2023-01-29T02:35:29.184Z,8.39
2023-01-29T02:40:36.964Z,8.40
2023-01-29T02:45:47.090Z,8.59
2023-01-29T02:50:55.246Z,8.20
2023-01-29T02:56:01.239Z,8.23
2023-01-29T03:01:09.468Z,8.67
2023-01-29T03:06:18.213Z,7.93
2023-01-29T03:11:22.458Z,8.20
2023-01-29T03:16:33.024Z,7.97
2023-01-29T03:21:55.256Z,8.14
2023-01-29T03:27:17.842Z,8.49
2023-01-29T03:32:26.531Z,8.61
2023-01-29T03:37:34.840Z,8.40
2023-01-29T03:42:52.111Z,9.10
2023-01-29T03:48:01.981Z,9.14
2023-01-29T03:53:10.415Z,9.60
2023-01-29T03:58:22.295Z,8.78
2023-01-29T04:03:33.148Z,8.58
2023-01-29T04:08:46.949Z,9.07
2023-01-29T04:13:51.106Z,8.79
2023-01-29T04:18:57.145Z,8.96
2023-01-29T04:24:08.617Z,8.65
2023-01-29T04:29:22.962Z,9.34
2023-01-29T04:34:35.548Z,9.57
2023-01-29T04:39:45.910Z,9.37
2023-01-29T04:44:52.014Z,9.53
2023-01-29T04:50:04.254Z,9.09
2023-01-29T04:55:11.601Z,9.11
2023-01-29T05:00:19.460Z,8.54
2023-01-29T05:05:24.283Z,8.87
2023-01-29T05:10:28.182Z,8.51
2023-01-29T05:15:44.109Z,8.44
2023-01-29T05:20:49.288Z,8.48
2023-01-29T05:25:52.852Z,8.51
2023-01-29T05:30:57.521Z,8.75
2023-01-29T05:36:02.354Z,8.59
2023-01-29T05:41:05.988Z,8.34
2023-01-29T05:46:09.428Z,8.66
2023-01-29T05:51:14.118Z,8.31
2023-01-29T05:56:17.681Z,8.87
2023-01-29T06:01:23.384Z,9.78
2023-01-29T06:06:28.324Z,8.99
2023-01-29T06:11:31.783Z,9.05
2023-01-29T06:16:35.280Z,9.41
2023-01-29T06:21:40.015Z,8.65
2023-01-29T06:26:43.386Z,8.93
2023-01-29T06:31:46.881Z,9.32
2023-01-29T06:36:51.756Z,9.06
2023-01-29T06:41:55.231Z,9.51
2023-01-29T06:46:58.957Z,9.06
2023-01-29T06:52:03.653Z,8.93
2023-01-29T06:57:07.075Z,9.27
2023-01-29T07:02:10.527Z,8.83
2023-01-29T07:07:15.335Z,8.99
2023-01-29T07:12:18.699Z,8.71
2023-01-29T07:17:22.081Z,8.86
2023-01-29T07:22:26.843Z,8.46
2023-01-29T07:27:30.231Z,8.61
2023-01-29T07:32:33.637Z,8.69
2023-01-29T07:37:38.442Z,8.12
2023-01-29T07:42:44.010Z,8.40
2023-01-29T07:47:53.206Z,8.64
2023-01-29T07:52:58.065Z,8.66
2023-01-29T07:58:22.056Z,8.39
2023-01-29T08:03:25.421Z,8.68
2023-01-29T08:08:30.266Z,8.46
2023-01-29T08:13:33.998Z,8.26
2023-01-29T08:18:38.016Z,8.12
2023-01-29T08:23:42.762Z,8.02
2023-01-29T08:28:46.126Z,8.31
2023-01-29T08:33:49.889Z,8.30
2023-01-29T08:38:57.458Z,8.55
2023-01-29T08:44:02.315Z,8.61
2023-01-29T08:49:05.665Z,7.87
2023-01-29T08:54:10.374Z,8.70
2023-01-29T08:59:14.323Z,9.41
2023-01-29T09:04:17.755Z,8.77
2023-01-29T09:09:22.544Z,9.50
2023-01-29T09:14:27.559Z,9.34
2023-01-29T09:19:30.906Z,9.07
2023-01-29T09:24:35.854Z,8.97
2023-01-29T09:29:39.226Z,9.23
2023-01-29T09:34:42.642Z,9.33
2023-01-29T09:39:47.846Z,8.66
2023-01-29T09:44:56.627Z,9.02
2023-01-29T09:50:02.606Z,8.80
2023-01-29T09:55:13.662Z,9.70
2023-01-29T10:00:21.517Z,9.24
2023-01-29T10:05:33.818Z,9.29
2023-01-29T10:10:49.045Z,9.89
2023-01-29T10:16:04.247Z,9.86
2023-01-29T10:21:18.556Z,10.19
2023-01-29T10:26:25.850Z,9.45
2023-01-29T10:31:32.668Z,9.55
2023-01-29T10:36:38.210Z,9.88
2023-01-29T10:41:54.227Z,9.51
2023-01-29T10:47:19.059Z,10.73
2023-01-29T10:52:36.512Z,11.06
2023-01-29T10:57:53.800Z,9.90
2023-01-29T11:02:57.261Z,9.57
2023-01-29T11:08:05.150Z,9.92
2023-01-29T11:13:15.202Z,10.35
2023-01-29T11:18:18.704Z,9.30
2023-01-29T11:23:27.121Z,9.31
2023-01-29T11:28:39.176Z,9.50
2023-01-29T11:33:42.660Z,10.44
2023-01-29T11:38:46.008Z,10.01
2023-01-29T11:43:50.739Z,9.90
2023-01-29T11:48:59.402Z,11.22
2023-01-29T11:54:16.225Z,9.96
2023-01-29T11:59:30.657Z,10.53
2023-01-29T12:04:34.045Z,10.22
2023-01-29T12:09:39.334Z,11.21
2023-01-29T12:14:45.150Z,10.62
2023-01-29T12:19:52.095Z,10.00
2023-01-29T12:24:58.605Z,10.61
2023-01-29T12:30:07.167Z,9.39
2023-01-29T12:35:16.727Z,9.49
2023-01-29T12:40:20.703Z,10.03
2023-01-29T12:45:28.154Z,10.29
2023-01-29T12:50:34.747Z,9.71
2023-01-29T12:55:40.618Z,10.45
2023-01-29T13:00:47.930Z,10.16
2023-01-29T13:05:53.060Z,10.13
2023-01-29T13:11:01.491Z,10.67
2023-01-29T13:16:08.775Z,9.96
2023-01-29T13:21:14.930Z,9.38
2023-01-29T13:26:19.733Z,9.94
2023-01-29T13:31:31.462Z,10.22
2023-01-29T13:36:35.838Z,10.03
2023-01-29T13:41:42.403Z,9.81
2023-01-29T13:46:52.683Z,10.31
2023-01-29T13:51:56.207Z,9.37
2023-01-29T13:57:02.051Z,9.44
2023-01-29T14:02:21.676Z,9.47
2023-01-29T14:07:50.844Z,9.96
2023-01-29T14:12:55.507Z,10.02
2023-01-29T14:18:07.285Z,9.52
2023-01-29T14:23:29.567Z,9.14
2023-01-29T14:28:34.496Z,9.25
2023-01-29T14:33:43.329Z,9.60
2023-01-29T14:38:50.344Z,9.83
2023-01-29T14:44:44.686Z,9.54
2023-01-29T14:49:54.842Z,10.04
2023-01-29T14:55:02.001Z,10.19
2023-01-29T15:00:07.407Z,10.19
2023-01-29T15:05:14.879Z,9.92
2023-01-29T15:10:23.228Z,9.36
2023-01-29T15:15:33.899Z,9.37
2023-01-29T15:20:40.672Z,9.22
2023-01-29T15:25:49.732Z,8.07
2023-01-29T15:30:55.510Z,9.55
2023-01-29T15:36:07.384Z,9.59
2023-01-29T15:41:18.923Z,8.59
2023-01-29T15:46:26.552Z,9.02
2023-01-29T15:51:32.661Z,8.82
2023-01-29T15:56:39.548Z,8.99
2023-01-29T16:01:43.218Z,9.22
2023-01-29T16:06:48.364Z,8.02
2023-01-29T16:11:52.919Z,8.73
2023-01-29T16:16:56.498Z,8.41
2023-01-29T16:22:02.492Z,8.75
2023-01-29T16:27:11.735Z,8.68
2023-01-29T16:32:16.302Z,8.20
2023-01-29T16:37:23.702Z,7.97
2023-01-29T16:42:31.293Z,8.25
2023-01-29T16:47:36.788Z,8.60
2023-01-29T16:52:57.675Z,8.64
2023-01-29T16:58:04.694Z,8.47
2023-01-29T17:03:08.562Z,8.98
2023-01-29T17:08:24.018Z,8.44
2023-01-29T17:13:45.639Z,9.40
2023-01-29T17:18:49.407Z,8.44
2023-01-29T17:23:54.460Z,8.37
2023-01-29T17:28:57.909Z,7.92
2023-01-29T17:34:01.560Z,7.90
2023-01-29T17:39:13.498Z,8.46
2023-01-29T17:44:16.874Z,8.24
2023-01-29T17:49:24.114Z,8.51
2023-01-29T17:54:28.923Z,8.20
2023-01-29T17:59:34.208Z,8.02
2023-01-29T18:04:38.652Z,8.23
2023-01-29T18:09:43.660Z,8.62
2023-01-29T18:14:47.160Z,8.38
2023-01-29T18:19:50.906Z,8.69
2023-01-29T18:24:56.329Z,8.05
2023-01-29T18:29:59.750Z,8.82
2023-01-29T18:35:03.238Z,8.92
2023-01-29T18:40:09.884Z,8.22
2023-01-29T18:45:13.858Z,8.08
2023-01-29T18:50:17.870Z,8.64
2023-01-29T18:55:23.328Z,7.80
2023-01-29T19:00:26.738Z,8.07
2023-01-29T19:05:30.163Z,7.87
2023-01-29T19:10:35.476Z,7.93
2023-01-29T19:15:42.813Z,8.23
2023-01-29T19:20:46.192Z,8.03
2023-01-29T19:25:51.239Z,8.22
2023-01-29T19:30:57.688Z,7.95
2023-01-29T19:36:01.644Z,7.80
2023-01-29T19:41:06.741Z,8.22
2023-01-29T19:46:11.337Z,8.56
2023-01-29T19:51:14.707Z,7.68
2023-01-29T19:56:19.861Z,7.80
2023-01-29T20:01:24.584Z,7.57
2023-01-29T20:06:30.893Z,8.66
2023-01-29T20:11:47.291Z,8.24
2023-01-29T20:16:50.881Z,7.87
2023-01-29T20:21:54.501Z,7.52
2023-01-29T20:26:59.825Z,7.82
2023-01-29T20:32:04.171Z,8.22
2023-01-29T20:37:07.674Z,7.45
2023-01-29T20:42:12.646Z,7.72
2023-01-29T20:47:16.077Z,8.29
2023-01-29T20:52:19.572Z,8.01
2023-01-29T20:57:24.851Z,8.50
2023-01-29T21:02:28.244Z,8.35
2023-01-29T21:07:31.612Z,7.84
2023-01-29T21:12:36.465Z,8.56
2023-01-29T21:17:40.038Z,7.92
2023-01-29T21:22:43.982Z,8.43
2023-01-29T21:27:48.850Z,9.24
2023-01-29T21:32:52.338Z,8.47
2023-01-29T21:37:55.973Z,8.65
2023-01-29T21:43:12.713Z,9.42
2023-01-29T21:48:16.124Z,9.24
2023-01-29T21:53:19.890Z,9.31
2023-01-29T21:58:24.793Z,9.50
2023-01-29T22:03:28.331Z,8.95
2023-01-29T22:08:32.011Z,8.66
2023-01-29T22:13:36.931Z,8.65
2023-01-29T22:18:40.301Z,9.27
2023-01-29T22:23:43.685Z,9.47
2023-01-29T22:28:48.451Z,8.90
2023-01-29T22:33:53.214Z,8.99
2023-01-29T22:38:56.531Z,9.66
2023-01-29T22:44:01.324Z,9.32
2023-01-29T22:49:04.696Z,9.40
2023-01-29T22:54:08.147Z,9.54
2023-01-29T22:59:12.917Z,9.37
2023-01-29T23:04:16.488Z,9.40
2023-01-29T23:09:19.865Z,9.65
2023-01-29T23:14:24.712Z,9.00
2023-01-29T23:19:29.957Z,9.06
2023-01-29T23:24:33.359Z,8.93
2023-01-29T23:29:38.175Z,9.74
2023-01-29T23:34:41.538Z,9.04
2023-01-29T23:39:44.923Z,9.22
2023-01-29T23:44:49.820Z,9.41
2023-01-29T23:49:53.517Z,9.24
2023-01-29T23:54:56.856Z,9.65
